Time;durP1;ratioP1;P1;durP2;ratioP2;P2;SDS_P1;SDS_P2;PMS_P1;PMS_P2;Temp;Humidity;BMP_temperature;BMP_pressure;BME280_temperature;BME280_humidity;BME280_pressure;Samples;Min_cycle;Max_cycle;Signal;HPM_P1;HPM_P2
2024/02/10 00:02:15;;;;;;;;;;;;;;;;;;5072706;28;19932;-80
2024/02/10 00:04:42;;;;;;;;;;;;;;;;;;5068296;28;19925;-80
2024/02/10 00:07:09;;;;;;;;;;;;;;;;;;5073085;28;19924;-80
2024/02/10 00:09:37;;;;;;;;;;;;;;;;;;5059983;28;20385;-80
2024/02/10 00:12:04;;;;;;;;;;;;;;;;;;5078569;28;19936;-79
2024/02/10 00:14:32;;;;;;;;;;;;;;;;;;5083856;28;20386;-80
2024/02/10 00:16:58;;;;;;;;;;;;;;;;;;5079776;28;19978;-80
2024/02/10 00:19:27;;;;;;;;;;;;;;;;;;5080565;28;19928;-80
2024/02/10 00:21:53;;;;;;;;;;;;;;;;;;5076708;28;19928;-80
2024/02/10 00:24:20;;;;;;;;;;;;;;;;;;5073751;28;19937;-80
2024/02/10 00:26:46;;;;;;;;;;;;;;;;;;5078616;28;19931;-80
2024/02/10 00:29:13;;;;;;;;;;;;;;;;;;5081186;28;20023;-79
2024/02/10 00:31:43;;;;;;;;;;;;;;;;;;5084555;28;19939;-80
2024/02/10 00:34:10;;;;;;;;;;;;;;;;;;5082864;28;19925;-80
2024/02/10 00:36:36;;;;;;;;;;;;;;;;;;5087486;28;20009;-80
2024/02/10 00:39:04;;;;;;;;;;;;;;;;;;5078650;28;19924;-81
2024/02/10 00:41:30;;;;;;;;;;;;;;;;;;5078491;28;20015;-80
2024/02/10 00:43:56;;;;;;;;;;;;;;;;;;5080448;28;20267;-80
2024/02/10 00:46:23;;;;;;;;;;;;;;;;;;5080332;28;19943;-80
2024/02/10 00:48:53;;;;;;;;;;;;;;;;;;5080152;28;19925;-80
2024/02/10 00:51:20;;;;;;;;;;;;;;;;;;5081993;28;20385;-79
2024/02/10 00:53:47;;;;;;;;;;;;;;;;;;5077091;28;19929;-79
2024/02/10 00:56:13;;;;;;;;;;;;;;;;;;5080883;28;19950;-80
2024/02/10 00:58:44;;;;;;;;;;;;;;;;;;5087560;28;19924;-80
2024/02/10 01:01:12;;;;;;;;;;;;;;;;;;5081117;28;20041;-80
2024/02/10 01:03:44;;;;;;;;;;;;;;;;;;5072612;28;20019;-80
2024/02/10 01:06:12;;;;;;;;;;;;;;;;;;5080771;28;20305;-80
2024/02/10 01:08:40;;;;;;;;;;;;;;;;;;5081196;28;19927;-81
2024/02/10 01:11:10;;;;;;;;;;;;;;;;;;5076027;28;19929;-80
2024/02/10 01:13:36;;;;;;;;;;;;;;;;;;5078978;28;19928;-81
2024/02/10 01:16:03;;;;;;;;;;;;;;;;;;5081519;28;19924;-78
2024/02/10 01:18:29;;;;;;;;;;;;;;;;;;5074263;28;20384;-79
2024/02/10 01:20:57;;;;;;;;;;;;;;;;;;5072931;28;20399;-79
2024/02/10 01:23:24;;;;;;;;;;;;;;;;;;5086997;28;20011;-79
2024/02/10 01:25:52;;;;;;;;;;;;;;;;;;5078022;28;19924;-81
2024/02/10 01:28:21;;;;;;;;;;;;;;;;;;5077105;28;20380;-77
2024/02/10 01:30:51;;;;;;;;;;;;;;;;;;5078007;28;19971;-79
2024/02/10 01:33:17;;;;;;;;;;;;;;;;;;5077785;28;20016;-78
2024/02/10 01:35:44;;;;;;;;;;;;;;;;;;5064285;28;19959;-79
2024/02/10 01:38:11;;;;;;;;;;;;;;;;;;5082908;28;20276;-80
2024/02/10 01:40:38;;;;;;;;;;;;;;;;;;5084124;28;20375;-79
2024/02/10 01:43:04;;;;;;;;;;;;;;;;;;5084339;28;20657;-79
2024/02/10 01:45:32;;;;;;;;;;;;;;;;;;5075187;28;19928;-78
2024/02/10 01:48:05;;;;;;;;;;;;;;;;;;5084424;28;20391;-79
2024/02/10 01:50:31;;;;;;;;;;;;;;;;;;5074995;28;20424;-79
2024/02/10 01:52:58;;;;;;;;;;;;;;;;;;5071971;28;19935;-80
2024/02/10 01:55:24;;;;;;;;;;;;;;;;;;5081976;28;19929;-79
2024/02/10 01:57:51;;;;;;;;;;;;;;;;;;5060472;28;19924;-79
2024/02/10 02:00:17;;;;;;;;;;;;;;;;;;5082345;28;19955;-78
2024/02/10 02:02:44;;;;;;;;;;;;;;;;;;5077739;28;19931;-79
2024/02/10 02:05:10;;;;;;;;;;;;;;;;;;5079520;28;19928;-78
2024/02/10 02:07:38;;;;;;;;;;;;;;;;;;5080776;28;20027;-79
2024/02/10 02:10:08;;;;;;;;;;;;;;;;;;5081401;28;19954;-78
2024/02/10 02:12:35;;;;;;;;;;;;;;;;;;5079329;28;19928;-77
2024/02/10 02:15:01;;;;;;;;;;;;;;;;;;5079070;28;19939;-75
2024/02/10 02:17:28;;;;;;;;;;;;;;;;;;5075492;28;19964;-76
2024/02/10 02:19:54;;;;;;;;;;;;;;;;;;5084365;28;19925;-79
2024/02/10 02:22:20;;;;;;;;;;;;;;;;;;5086173;28;20013;-78
2024/02/10 02:24:47;;;;;;;;;;;;;;;;;;5085034;28;20293;-78
2024/02/10 02:27:14;;;;;;;;;;;;;;;;;;5085864;28;19930;-77
2024/02/10 02:29:40;;;;;;;;;;;;;;;;;;5059118;28;20013;-77
2024/02/10 02:32:08;;;;;;;;;;;;;;;;;;5077980;28;20313;-78
2024/02/10 02:34:35;;;;;;;;;;;;;;;;;;5077439;28;20309;-78
2024/02/10 02:37:02;;;;;;;;;;;;;;;;;;5083608;28;19925;-75
2024/02/10 02:39:30;;;;;;;;;;;;;;;;;;5076372;28;20003;-77
2024/02/10 02:41:59;;;;;;;;;;;;;;;;;;5083083;28;19929;-77
2024/02/10 02:44:26;;;;;;;;;;;;;;;;;;5081546;28;19931;-78
2024/02/10 02:46:54;;;;;;;;;;;;;;;;;;5086509;28;19927;-77
2024/02/10 02:49:23;;;;;;;;;;;;;;;;;;5076080;28;19924;-77
2024/02/10 02:51:50;;;;;;;;;;;;;;;;;;5079934;28;20313;-76
2024/02/10 02:54:18;;;;;;;;;;;;;;;;;;5070645;28;19940;-77
2024/02/10 02:56:45;;;;;;;;;;;;;;;;;;5087232;28;19924;-76
2024/02/10 02:59:11;;;;;;;;;;;;;;;;;;5081172;28;19971;-77
2024/02/10 03:01:37;;;;;;;;;;;;;;;;;;5062415;28;20408;-76
2024/02/10 03:04:04;;;;;;;;;;;;;;;;;;5072338;28;19998;-77
2024/02/10 03:06:30;;;;;;;;;;;;;;;;;;5069026;28;19932;-78
2024/02/10 03:08:58;;;;;;;;;;;;;;;;;;5085243;28;19924;-77
2024/02/10 03:11:26;;;;;;;;;;;;;;;;;;5078834;28;19925;-78
2024/02/10 03:13:52;;;;;;;;;;;;;;;;;;5076410;28;20019;-76
2024/02/10 03:16:19;;;;;;;;;;;;;;;;;;5064955;28;20361;-76
2024/02/10 03:18:45;;;;;;;;;;;;;;;;;;5080644;28;19935;-78
2024/02/10 03:21:12;;;;;;;;;;;;;;;;;;5067078;28;19925;-77
2024/02/10 03:23:38;;;;;;;;;;;;;;;;;;5066395;28;20354;-76
2024/02/10 03:26:05;;;;;;;;;;;;;;;;;;5059906;28;19924;-77
2024/02/10 03:28:34;;;;;;;;;;;;;;;;;;5083228;28;19924;-76
2024/02/10 03:31:01;;;;;;;;;;;;;;;;;;5062052;28;20441;-76
2024/02/10 03:33:27;;;;;;;;;;;;;;;;;;5068941;28;19924;-75
2024/02/10 03:35:54;;;;;;;;;;;;;;;;;;5080823;28;19931;-77
2024/02/10 03:38:22;;;;;;;;;;;;;;;;;;5078987;28;20324;-78
2024/02/10 03:40:48;;;;;;;;;;;;;;;;;;5075228;28;19928;-79
2024/02/10 03:43:17;;;;;;;;;;;;;;;;;;5077372;28;19924;-76
2024/02/10 03:45:44;;;;;;;;;;;;;;;;;;5075217;28;19924;-78
2024/02/10 03:48:10;;;;;;;;;;;;;;;;;;5072112;28;20400;-78
2024/02/10 03:50:36;;;;;;;;;;;;;;;;;;5071519;28;19932;-78
2024/02/10 03:53:03;;;;;;;;;;;;;;;;;;5080795;28;19946;-77
2024/02/10 03:55:29;;;;;;;;;;;;;;;;;;5079195;28;19944;-77
2024/02/10 03:57:59;;;;;;;;;;;;;;;;;;5079777;28;19932;-76
2024/02/10 04:00:26;;;;;;;;;;;;;;;;;;5067663;28;20451;-77
2024/02/10 04:02:52;;;;;;;;;;;;;;;;;;5075716;28;19959;-79
2024/02/10 04:05:19;;;;;;;;;;;;;;;;;;5084378;28;19959;-77
2024/02/10 04:07:49;;;;;;;;;;;;;;;;;;5068317;28;20045;-78
2024/02/10 04:10:16;;;;;;;;;;;;;;;;;;5078369;28;19951;-79
2024/02/10 04:12:42;;;;;;;;;;;;;;;;;;5077603;28;19964;-77
2024/02/10 04:15:11;;;;;;;;;;;;;;;;;;5059582;28;19925;-78
2024/02/10 04:17:38;;;;;;;;;;;;;;;;;;5065365;28;20018;-77
2024/02/10 04:20:04;;;;;;;;;;;;;;;;;;5077418;28;19929;-79
2024/02/10 04:22:31;;;;;;;;;;;;;;;;;;5072848;28;19932;-78
2024/02/10 04:24:57;;;;;;;;;;;;;;;;;;5076346;28;19972;-76
2024/02/10 04:27:24;;;;;;;;;;;;;;;;;;5085040;28;20022;-78
2024/02/10 04:29:50;;;;;;;;;;;;;;;;;;5072982;28;20022;-78
2024/02/10 04:32:17;;;;;;;;;;;;;;;;;;5080449;28;19931;-78
2024/02/10 04:34:45;;;;;;;;;;;;;;;;;;5078656;28;19930;-77
2024/02/10 04:37:11;;;;;;;;;;;;;;;;;;5073510;28;20301;-77
2024/02/10 04:39:38;;;;;;;;;;;;;;;;;;5071565;28;19925;-78
2024/02/10 04:42:05;;;;;;;;;;;;;;;;;;5076722;28;19967;-77
2024/02/10 04:44:31;;;;;;;;;;;;;;;;;;5074191;28;19924;-78
2024/02/10 04:46:58;;;;;;;;;;;;;;;;;;5078457;28;19931;-76
2024/02/10 04:49:26;;;;;;;;;;;;;;;;;;5079729;28;19932;-77
2024/02/10 04:51:52;;;;;;;;;;;;;;;;;;5082634;28;19924;-78
2024/02/10 04:54:18;;;;;;;;;;;;;;;;;;5074111;28;19925;-77
2024/02/10 04:56:45;;;;;;;;;;;;;;;;;;5071884;28;20407;-76
2024/02/10 04:59:17;;;;;;;;;;;;;;;;;;5071920;28;19935;-78
2024/02/10 05:01:43;;;;;;;;;;;;;;;;;;5073969;28;19924;-78
2024/02/10 05:04:11;;;;;;;;;;;;;;;;;;5072687;28;19973;-78
2024/02/10 05:06:37;;;;;;;;;;;;;;;;;;5074931;28;19931;-77
2024/02/10 05:09:03;;;;;;;;;;;;;;;;;;5073711;28;19967;-77
2024/02/10 05:11:31;;;;;;;;;;;;;;;;;;5075851;28;19960;-79
2024/02/10 05:14:00;;;;;;;;;;;;;;;;;;5077272;28;19978;-77
2024/02/10 05:16:27;;;;;;;;;;;;;;;;;;5080405;28;19928;-78
2024/02/10 05:18:55;;;;;;;;;;;;;;;;;;5072574;28;19925;-76
2024/02/10 05:21:24;;;;;;;;;;;;;;;;;;5073103;28;19929;-77
2024/02/10 05:23:50;;;;;;;;;;;;;;;;;;5076325;28;19962;-77
2024/02/10 05:26:17;;;;;;;;;;;;;;;;;;5080867;28;19967;-77
2024/02/10 05:28:43;;;;;;;;;;;;;;;;;;5082860;28;19924;-77
2024/02/10 05:31:11;;;;;;;;;;;;;;;;;;5079704;28;19924;-79
2024/02/10 05:33:37;;;;;;;;;;;;;;;;;;5079966;28;20010;-78
2024/02/10 05:36:03;;;;;;;;;;;;;;;;;;5070699;28;19925;-78
2024/02/10 05:38:30;;;;;;;;;;;;;;;;;;5089706;28;20027;-77
2024/02/10 05:40:56;;;;;;;;;;;;;;;;;;5072843;28;20015;-77
2024/02/10 05:43:23;;;;;;;;;;;;;;;;;;5082643;28;19932;-78
2024/02/10 05:45:49;;;;;;;;;;;;;;;;;;5090988;28;20420;-77
2024/02/10 05:48:20;;;;;;;;;;;;;;;;;;5076307;28;20385;-77
2024/02/10 05:50:50;;;;;;;;;;;;;;;;;;5063973;28;19932;-78
2024/02/10 05:53:16;;;;;;;;;;;;;;;;;;5075575;28;20027;-79
2024/02/10 05:55:43;;;;;;;;;;;;;;;;;;5079495;28;20399;-78
2024/02/10 05:58:09;;;;;;;;;;;;;;;;;;5071368;28;19928;-78
2024/02/10 06:00:40;;;;;;;;;;;;;;;;;;5083092;28;19971;-80
2024/02/10 06:03:06;;;;;;;;;;;;;;;;;;5078706;28;19932;-78
2024/02/10 06:05:33;;;;;;;;;;;;;;;;;;5080254;28;19925;-77
2024/02/10 06:08:00;;;;;;;;;;;;;;;;;;5082313;28;19940;-76
2024/02/10 06:10:27;;;;;;;;;;;;;;;;;;5083651;28;20382;-79
2024/02/10 06:12:53;;;;;;;;;;;;;;;;;;5076335;28;20013;-78
2024/02/10 06:15:20;;;;;;;;;;;;;;;;;;5082688;28;19932;-77
2024/02/10 06:17:47;;;;;;;;;;;;;;;;;;5081434;28;19928;-77
2024/02/10 06:20:17;;;;;;;;;;;;;;;;;;5080758;28;19924;-76
2024/02/10 06:22:46;;;;;;;;;;;;;;;;;;5075004;28;19924;-78
2024/02/10 06:25:13;;;;;;;;;;;;;;;;;;5073960;28;19931;-77
2024/02/10 06:27:41;;;;;;;;;;;;;;;;;;5065073;28;20448;-77
2024/02/10 06:30:09;;;;;;;;;;;;;;;;;;5077297;28;19974;-78
2024/02/10 06:32:37;;;;;;;;;;;;;;;;;;5075684;28;19928;-77
2024/02/10 06:35:04;;;;;;;;;;;;;;;;;;5077352;28;20337;-79
2024/02/10 06:37:32;;;;;;;;;;;;;;;;;;5079962;28;20385;-80
2024/02/10 06:39:58;;;;;;;;;;;;;;;;;;5072311;28;19932;-79
2024/02/10 06:42:34;;;;;;;;;;;;;;;;;;5085616;28;20020;-79
2024/02/10 06:45:00;;;;;;;;;;;;;;;;;;5073341;28;19956;-79
2024/02/10 06:47:27;;;;;;;;;;;;;;;;;;5076127;28;19924;-80
2024/02/10 06:49:53;;;;;;;;;;;;;;;;;;5070658;28;20007;-81
2024/02/10 06:52:19;;;;;;;;;;;;;;;;;;5074907;28;20005;-79
2024/02/10 06:54:49;;;;;;;;;;;;;;;;;;5070580;28;19932;-79
2024/02/10 06:57:15;;;;;;;;;;;;;;;;;;5084785;28;19952;-77
2024/02/10 06:59:42;;;;;;;;;;;;;;;;;;5072723;28;19931;-79
2024/02/10 07:02:11;;;;;;;;;;;;;;;;;;5087937;28;19924;-78
2024/02/10 07:04:39;;;;;;;;;;;;;;;;;;5073037;28;19974;-78
2024/02/10 07:07:06;;;;;;;;;;;;;;;;;;5084599;28;19967;-79
2024/02/10 07:09:35;;;;;;;;;;;;;;;;;;5069687;28;19926;-79
2024/02/10 07:12:01;;;;;;;;;;;;;;;;;;5067775;28;20273;-79
2024/02/10 07:14:28;;;;;;;;;;;;;;;;;;5070021;28;20015;-80
2024/02/10 07:16:56;;;;;;;;;;;;;;;;;;5068619;28;19925;-78
2024/02/10 07:19:24;;;;;;;;;;;;;;;;;;5075098;28;19924;-78
2024/02/10 07:21:50;;;;;;;;;;;;;;;;;;5073097;28;19925;-78
2024/02/10 07:24:17;;;;;;;;;;;;;;;;;;5080735;28;19931;-80
2024/02/10 07:26:43;;;;;;;;;;;;;;;;;;5076053;28;20035;-78
2024/02/10 07:29:11;;;;;;;;;;;;;;;;;;5080990;28;19948;-80
2024/02/10 07:31:39;;;;;;;;;;;;;;;;;;5073224;28;20040;-79
2024/02/10 07:34:06;;;;;;;;;;;;;;;;;;5074500;28;19971;-79
2024/02/10 07:36:37;;;;;;;;;;;;;;;;;;5072459;28;19929;-79
2024/02/10 07:39:07;;;;;;;;;;;;;;;;;;5080891;28;19935;-76
2024/02/10 07:41:34;;;;;;;;;;;;;;;;;;5082707;28;20039;-77
2024/02/10 07:44:06;;;;;;;;;;;;;;;;;;5084099;28;19970;-77
2024/02/10 07:46:34;;;;;;;;;;;;;;;;;;5075409;28;19934;-75
2024/02/10 07:49:07;;;;;;;;;;;;;;;;;;5084456;28;19932;-77
2024/02/10 07:51:33;;;;;;;;;;;;;;;;;;5086543;28;19932;-77
2024/02/10 07:53:59;;;;;;;;;;;;;;;;;;5082351;28;19928;-78
2024/02/10 07:56:29;;;;;;;;;;;;;;;;;;5079605;28;20027;-75
2024/02/10 07:58:58;;;;;;;;;;;;;;;;;;5076914;28;20453;-75
2024/02/10 08:01:25;;;;;;;;;;;;;;;;;;5062256;28;19970;-78
2024/02/10 08:03:54;;;;;;;;;;;;;;;;;;5072201;28;19924;-76
2024/02/10 08:06:26;;;;;;;;;;;;;;;;;;5081469;28;19928;-77
2024/02/10 08:08:54;;;;;;;;;;;;;;;;;;5086342;28;19924;-76
2024/02/10 08:11:21;;;;;;;;;;;;;;;;;;5087784;28;20281;-76
2024/02/10 08:13:47;;;;;;;;;;;;;;;;;;5076283;28;20395;-76
2024/02/10 08:16:14;;;;;;;;;;;;;;;;;;5074493;28;20390;-75
2024/02/10 08:18:41;;;;;;;;;;;;;;;;;;5076288;28;19924;-78
2024/02/10 08:21:09;;;;;;;;;;;;;;;;;;5085779;28;19928;-75
2024/02/10 08:23:38;;;;;;;;;;;;;;;;;;5077948;28;19924;-77
2024/02/10 08:26:04;;;;;;;;;;;;;;;;;;5091885;28;19924;-76
2024/02/10 08:28:31;;;;;;;;;;;;;;;;;;5081872;28;19979;-76
2024/02/10 08:30:59;;;;;;;;;;;;;;;;;;5085186;28;20022;-76
2024/02/10 08:33:30;;;;;;;;;;;;;;;;;;5070332;28;19989;-76
2024/02/10 08:35:57;;;;;;;;;;;;;;;;;;5085496;28;19924;-75
2024/02/10 08:38:23;;;;;;;;;;;;;;;;;;5081699;28;19928;-77
2024/02/10 08:40:50;;;;;;;;;;;;;;;;;;5069879;28;19931;-76
2024/02/10 08:43:17;;;;;;;;;;;;;;;;;;5071833;28;20373;-75
2024/02/10 08:45:44;;;;;;;;;;;;;;;;;;5084803;28;19924;-76
2024/02/10 08:48:10;;;;;;;;;;;;;;;;;;5063067;28;19933;-78
2024/02/10 08:50:40;;;;;;;;;;;;;;;;;;5080572;28;19924;-76
2024/02/10 08:53:07;;;;;;;;;;;;;;;;;;5069565;28;19973;-75
2024/02/10 08:55:33;;;;;;;;;;;;;;;;;;5085531;28;20282;-77
2024/02/10 08:58:01;;;;;;;;;;;;;;;;;;5066278;28;20397;-77
2024/02/10 09:00:27;;;;;;;;;;;;;;;;;;5070558;28;19925;-76
2024/02/10 09:02:54;;;;;;;;;;;;;;;;;;5083028;28;19932;-76
2024/02/10 09:05:20;;;;;;;;;;;;;;;;;;5079719;28;19925;-76
2024/02/10 09:07:46;;;;;;;;;;;;;;;;;;5088914;28;19928;-75
2024/02/10 09:10:13;;;;;;;;;;;;;;;;;;5078555;28;19924;-77
2024/02/10 09:12:41;;;;;;;;;;;;;;;;;;5079542;28;19931;-76
2024/02/10 09:15:07;;;;;;;;;;;;;;;;;;5079529;28;20385;-76
2024/02/10 09:17:34;;;;;;;;;;;;;;;;;;5084390;28;19925;-75
2024/02/10 09:20:00;;;;;;;;;;;;;;;;;;5077768;28;19929;-77
2024/02/10 09:22:27;;;;;;;;;;;;;;;;;;5079410;28;19925;-76
2024/02/10 09:24:54;;;;;;;;;;;;;;;;;;5085570;28;20335;-78
2024/02/10 09:27:21;;;;;;;;;;;;;;;;;;5072471;28;19928;-77
2024/02/10 09:29:47;;;;;;;;;;;;;;;;;;5079818;28;19960;-76
2024/02/10 09:32:14;;;;;;;;;;;;;;;;;;5079143;28;19924;-76
2024/02/10 09:34:41;;;;;;;;;;;;;;;;;;5076859;28;19939;-74
2024/02/10 09:37:08;;;;;;;;;;;;;;;;;;5082839;28;20280;-74
2024/02/10 09:39:37;;;;;;;;;;;;;;;;;;5076056;28;19924;-75
2024/02/10 09:42:03;;;;;;;;;;;;;;;;;;5074105;28;19931;-76
2024/02/10 09:44:31;;;;;;;;;;;;;;;;;;5086894;28;19928;-76
2024/02/10 09:47:00;;;;;;;;;;;;;;;;;;5069520;28;19929;-75
2024/02/10 09:49:27;;;;;;;;;;;;;;;;;;5086577;28;20447;-74
2024/02/10 09:51:54;;;;;;;;;;;;;;;;;;5076843;28;20011;-75
2024/02/10 09:54:20;;;;;;;;;;;;;;;;;;5073318;28;20376;-76
2024/02/10 09:56:46;;;;;;;;;;;;;;;;;;5072977;28;19935;-74
2024/02/10 09:59:13;;;;;;;;;;;;;;;;;;5086233;28;19928;-76
2024/02/10 10:01:39;;;;;;;;;;;;;;;;;;5063775;28;19932;-76
2024/02/10 10:04:11;;;;;;;;;;;;;;;;;;5082173;28;19936;-76
2024/02/10 10:06:39;;;;;;;;;;;;;;;;;;5077630;28;19924;-77
2024/02/10 10:09:06;;;;;;;;;;;;;;;;;;5071522;28;19978;-76
2024/02/10 10:11:34;;;;;;;;;;;;;;;;;;5079418;28;20338;-76
2024/02/10 10:14:00;;;;;;;;;;;;;;;;;;5083304;28;19928;-76
2024/02/10 10:16:27;;;;;;;;;;;;;;;;;;5071049;28;19929;-76
2024/02/10 10:18:55;;;;;;;;;;;;;;;;;;5079512;28;20035;-77
2024/02/10 10:21:23;;;;;;;;;;;;;;;;;;5083012;28;20054;-75
2024/02/10 10:23:49;;;;;;;;;;;;;;;;;;5078652;28;19940;-76
2024/02/10 10:26:15;;;;;;;;;;;;;;;;;;5083957;28;20387;-77
2024/02/10 10:28:42;;;;;;;;;;;;;;;;;;5083235;28;19925;-76
2024/02/10 10:31:08;;;;;;;;;;;;;;;;;;5079153;28;19924;-76
2024/02/10 10:33:35;;;;;;;;;;;;;;;;;;5074905;28;19960;-76
2024/02/10 10:36:02;;;;;;;;;;;;;;;;;;5075946;28;20373;-76
2024/02/10 10:38:29;;;;;;;;;;;;;;;;;;5070520;28;19947;-75
2024/02/10 10:40:55;;;;;;;;;;;;;;;;;;5083719;28;19928;-76
2024/02/10 10:43:22;;;;;;;;;;;;;;;;;;5076974;28;20054;-76
2024/02/10 10:45:48;;;;;;;;;;;;;;;;;;5085756;28;20027;-75
2024/02/10 10:48:15;;;;;;;;;;;;;;;;;;5071473;28;20299;-76
2024/02/10 10:50:41;;;;;;;;;;;;;;;;;;5076214;28;19924;-77
2024/02/10 10:53:09;;;;;;;;;;;;;;;;;;5079362;28;20446;-76
2024/02/10 10:55:36;;;;;;;;;;;;;;;;;;5081984;28;19925;-78
2024/02/10 10:58:04;;;;;;;;;;;;;;;;;;5077523;28;19924;-75
2024/02/10 11:00:31;;;;;;;;;;;;;;;;;;5081411;28;19924;-74
2024/02/10 11:02:57;;;;;;;;;;;;;;;;;;5078397;28;19928;-77
2024/02/10 11:05:26;;;;;;;;;;;;;;;;;;5080289;28;19924;-76
2024/02/10 11:07:52;;;;;;;;;;;;;;;;;;5070961;28;20390;-76
2024/02/10 11:10:18;;;;;;;;;;;;;;;;;;5074502;28;19924;-75
2024/02/10 11:12:45;;;;;;;;;;;;;;;;;;5079248;28;20023;-76
2024/02/10 11:15:11;;;;;;;;;;;;;;;;;;5058571;28;19975;-76
2024/02/10 11:17:39;;;;;;;;;;;;;;;;;;5076288;28;19935;-75
2024/02/10 11:20:07;;;;;;;;;;;;;;;;;;5059934;28;19925;-76
2024/02/10 11:22:34;;;;;;;;;;;;;;;;;;5083395;28;19928;-75
2024/02/10 11:25:00;;;;;;;;;;;;;;;;;;5068515;28;19924;-75
2024/02/10 11:27:26;;;;;;;;;;;;;;;;;;5084481;28;19924;-76
2024/02/10 11:29:58;;;;;;;;;;;;;;;;;;5067361;28;20023;-76
2024/02/10 11:32:25;;;;;;;;;;;;;;;;;;5073183;28;19947;-75
2024/02/10 11:34:51;;;;;;;;;;;;;;;;;;5068123;28;20415;-75
2024/02/10 11:37:18;;;;;;;;;;;;;;;;;;5081869;28;20448;-76
2024/02/10 11:39:44;;;;;;;;;;;;;;;;;;5056855;28;19975;-76
2024/02/10 11:42:11;;;;;;;;;;;;;;;;;;5076734;28;19982;-76
2024/02/10 11:44:37;;;;;;;;;;;;;;;;;;5074909;28;19971;-77
2024/02/10 11:47:08;;;;;;;;;;;;;;;;;;5078445;28;19925;-75
2024/02/10 11:49:38;;;;;;;;;;;;;;;;;;5083584;28;20013;-75
2024/02/10 11:52:08;;;;;;;;;;;;;;;;;;5076251;28;19970;-75
2024/02/10 11:54:36;;;;;;;;;;;;;;;;;;5078289;28;19952;-76
2024/02/10 11:57:03;;;;;;;;;;;;;;;;;;5070866;28;19936;-76
2024/02/10 11:59:30;;;;;;;;;;;;;;;;;;5074518;28;19987;-75
2024/02/10 12:01:56;;;;;;;;;;;;;;;;;;5072148;28;19928;-77
2024/02/10 12:04:24;;;;;;;;;;;;;;;;;;5078265;28;19925;-76
2024/02/10 12:06:50;;;;;;;;;;;;;;;;;;5079441;28;19924;-77
2024/02/10 12:09:17;;;;;;;;;;;;;;;;;;5079165;28;19928;-76
2024/02/10 12:11:43;;;;;;;;;;;;;;;;;;5070320;28;19970;-75
2024/02/10 12:14:15;;;;;;;;;;;;;;;;;;5076557;28;19931;-76
2024/02/10 12:16:44;;;;;;;;;;;;;;;;;;5065601;28;20019;-76
2024/02/10 12:19:11;;;;;;;;;;;;;;;;;;5063481;28;20283;-76
2024/02/10 12:21:41;;;;;;;;;;;;;;;;;;5061134;28;19933;-77
2024/02/10 12:24:07;;;;;;;;;;;;;;;;;;5081871;28;19979;-75
2024/02/10 12:26:33;;;;;;;;;;;;;;;;;;5078845;28;19925;-76
2024/02/10 12:29:00;;;;;;;;;;;;;;;;;;5085011;28;19968;-77
2024/02/10 12:31:27;;;;;;;;;;;;;;;;;;5082477;28;19932;-77
2024/02/10 12:33:55;;;;;;;;;;;;;;;;;;5080511;28;19931;-76
2024/02/10 12:36:24;;;;;;;;;;;;;;;;;;5086805;28;19924;-77
2024/02/10 12:38:51;;;;;;;;;;;;;;;;;;5080865;28;19924;-75
2024/02/10 12:41:17;;;;;;;;;;;;;;;;;;5086783;28;19931;-76
2024/02/10 12:43:44;;;;;;;;;;;;;;;;;;5082031;28;20309;-75
2024/02/10 12:46:11;;;;;;;;;;;;;;;;;;5084104;28;19925;-76
2024/02/10 12:48:37;;;;;;;;;;;;;;;;;;5079071;28;19930;-77
2024/02/10 12:51:03;;;;;;;;;;;;;;;;;;5079387;28;19978;-76
2024/02/10 12:53:30;;;;;;;;;;;;;;;;;;5079175;28;19931;-76
2024/02/10 12:55:57;;;;;;;;;;;;;;;;;;5082133;28;20015;-76
2024/02/10 12:58:23;;;;;;;;;;;;;;;;;;5077943;28;19972;-76
2024/02/10 13:00:54;;;;;;;;;;;;;;;;;;5083080;28;19948;-76
2024/02/10 13:03:21;;;;;;;;;;;;;;;;;;5070820;28;19924;-75
2024/02/10 13:05:47;;;;;;;;;;;;;;;;;;5073076;28;20032;-78
2024/02/10 13:08:15;;;;;;;;;;;;;;;;;;5072441;28;19932;-78
2024/02/10 13:10:45;;;;;;;;;;;;;;;;;;5060039;28;19964;-75
2024/02/10 13:13:11;;;;;;;;;;;;;;;;;;5079018;28;19974;-77
2024/02/10 13:15:43;;;;;;;;;;;;;;;;;;5082935;28;19924;-76
2024/02/10 13:18:10;;;;;;;;;;;;;;;;;;5066613;28;19950;-75
2024/02/10 13:20:37;;;;;;;;;;;;;;;;;;5081555;28;20101;-76
2024/02/10 13:23:03;;;;;;;;;;;;;;;;;;5083331;28;20040;-76
2024/02/10 13:25:29;;;;;;;;;;;;;;;;;;5078863;28;19951;-77
2024/02/10 13:27:56;;;;;;;;;;;;;;;;;;5075870;28;20013;-76
2024/02/10 13:30:23;;;;;;;;;;;;;;;;;;5071598;28;19925;-76
2024/02/10 13:32:49;;;;;;;;;;;;;;;;;;5076087;28;20018;-77
2024/02/10 13:35:16;;;;;;;;;;;;;;;;;;5078461;28;20373;-76
2024/02/10 14:10:20;;;;;;;;;;;;;;;;;;5076344;28;19924;-76
2024/02/10 14:12:50;;;;;;;;;;;;;;;;;;5065729;28;19924;-76
2024/02/10 14:15:17;;;;;;;;;;;;;;;;;;5071319;28;20288;-77
2024/02/10 14:17:43;;;;;;;;;;;;;;;;;;5073999;28;20313;-76
2024/02/10 14:20:18;;;;;;;;;;;;;;;;;;5065958;28;19960;-77
2024/02/10 14:22:46;;;;;;;;;;;;;;;;;;5062782;28;19924;-77
2024/02/10 14:25:23;;;;;;;;;;;;;;;;;;5081988;28;19925;-76
2024/02/10 14:27:54;;;;;;;;;;;;;;;;;;5078436;28;19931;-76
2024/02/10 14:30:38;;;;;;;;;;;;;;;;;;5066580;28;19925;-77
2024/02/10 14:33:09;;;;;;;;;;;;;;;;;;5067271;28;19963;-76
2024/02/10 14:35:49;;;;;;;;;;;;;;;;;;5072406;28;20268;-77
2024/02/10 14:38:24;;;;;;;;;;;;;;;;;;5080501;28;19930;-77
2024/02/10 14:40:51;;;;;;;;;;;;;;;;;;5076676;28;19975;-77
2024/02/10 14:43:18;;;;;;;;;;;;;;;;;;5075302;28;19977;-76
2024/02/10 14:45:45;;;;;;;;;;;;;;;;;;5079707;28;19996;-77
2024/02/10 14:48:11;;;;;;;;;;;;;;;;;;5071665;28;19929;-76
2024/02/10 14:50:37;;;;;;;;;;;;;;;;;;5079583;28;19924;-77
2024/02/10 14:53:04;;;;;;;;;;;;;;;;;;5079927;28;19924;-77
2024/02/10 14:55:31;;;;;;;;;;;;;;;;;;5080054;28;20499;-77
2024/02/10 14:57:57;;;;;;;;;;;;;;;;;;5077386;28;19950;-77
2024/02/10 15:00:30;;;;;;;;;;;;;;;;;;5070926;28;19935;-77
2024/02/10 15:02:57;;;;;;;;;;;;;;;;;;5071162;28;20407;-77
2024/02/10 15:05:26;;;;;;;;;;;;;;;;;;5071973;28;19932;-76
2024/02/10 15:07:52;;;;;;;;;;;;;;;;;;5063821;28;19943;-76
2024/02/10 15:10:18;;;;;;;;;;;;;;;;;;5076548;28;20289;-76
2024/02/10 15:12:45;;;;;;;;;;;;;;;;;;5074935;28;19935;-76
2024/02/10 15:15:11;;;;;;;;;;;;;;;;;;5072867;28;19924;-77
2024/02/10 15:17:38;;;;;;;;;;;;;;;;;;5086142;28;19971;-76
2024/02/10 15:20:06;;;;;;;;;;;;;;;;;;5073343;28;20411;-77
2024/02/10 15:22:33;;;;;;;;;;;;;;;;;;5078032;28;19928;-75
2024/02/10 15:25:03;;;;;;;;;;;;;;;;;;5075860;28;19930;-76
2024/02/10 15:27:30;;;;;;;;;;;;;;;;;;5075693;28;20023;-76
2024/02/10 15:29:58;;;;;;;;;;;;;;;;;;5077642;28;19925;-76
2024/02/10 15:32:25;;;;;;;;;;;;;;;;;;5083990;28;20359;-76
2024/02/10 15:34:58;;;;;;;;;;;;;;;;;;5080712;28;19924;-76
2024/02/10 15:37:26;;;;;;;;;;;;;;;;;;5085538;28;19998;-76
2024/02/10 15:39:53;;;;;;;;;;;;;;;;;;5069125;28;19939;-76
2024/02/10 15:42:19;;;;;;;;;;;;;;;;;;5079860;28;19934;-76
2024/02/10 15:44:47;;;;;;;;;;;;;;;;;;5075615;28;20270;-77
2024/02/10 15:47:13;;;;;;;;;;;;;;;;;;5078611;28;19928;-76
2024/02/10 15:49:41;;;;;;;;;;;;;;;;;;5071071;28;19924;-76
2024/02/10 15:52:09;;;;;;;;;;;;;;;;;;5081774;28;19931;-76
2024/02/10 15:54:35;;;;;;;;;;;;;;;;;;5071569;28;20328;-77
2024/02/10 15:57:01;;;;;;;;;;;;;;;;;;5082046;28;20023;-76
2024/02/10 15:59:32;;;;;;;;;;;;;;;;;;5089748;28;19924;-76
2024/02/10 16:01:59;;;;;;;;;;;;;;;;;;5085284;28;19931;-76
2024/02/10 16:04:25;;;;;;;;;;;;;;;;;;5085130;28;20397;-76
2024/02/10 16:06:54;;;;;;;;;;;;;;;;;;5076287;28;19930;-76
2024/02/10 16:09:23;;;;;;;;;;;;;;;;;;5081268;28;19993;-76
2024/02/10 16:11:49;;;;;;;;;;;;;;;;;;5082472;28;19935;-77
2024/02/10 16:14:16;;;;;;;;;;;;;;;;;;5085259;28;20272;-77
2024/02/10 16:16:43;;;;;;;;;;;;;;;;;;5071321;28;20443;-76
2024/02/10 16:19:09;;;;;;;;;;;;;;;;;;5070700;28;19928;-76
2024/02/10 16:21:36;;;;;;;;;;;;;;;;;;5074705;28;19968;-77
2024/02/10 16:24:04;;;;;;;;;;;;;;;;;;5073754;28;19947;-76
2024/02/10 16:26:31;;;;;;;;;;;;;;;;;;5069880;28;19924;-76
2024/02/10 16:28:57;;;;;;;;;;;;;;;;;;5077834;28;19928;-77
2024/02/10 16:31:25;;;;;;;;;;;;;;;;;;5085463;28;20381;-76
2024/02/10 16:33:55;;;;;;;;;;;;;;;;;;5082313;28;19935;-76
2024/02/10 16:36:24;;;;;;;;;;;;;;;;;;5076691;28;19925;-76
2024/02/10 16:38:51;;;;;;;;;;;;;;;;;;5085698;28;19973;-74
2024/02/10 16:41:17;;;;;;;;;;;;;;;;;;5077880;28;20023;-76
2024/02/10 16:43:43;;;;;;;;;;;;;;;;;;5081925;28;20002;-75
2024/02/10 16:46:10;;;;;;;;;;;;;;;;;;5080858;28;19924;-76
2024/02/10 16:48:36;;;;;;;;;;;;;;;;;;5082601;28;20449;-75
2024/02/10 16:51:03;;;;;;;;;;;;;;;;;;5088600;28;19928;-76
2024/02/10 16:53:30;;;;;;;;;;;;;;;;;;5080226;28;20384;-76
2024/02/10 16:55:57;;;;;;;;;;;;;;;;;;5081987;28;20435;-75
2024/02/10 16:58:29;;;;;;;;;;;;;;;;;;5073719;28;20007;-76
2024/02/10 17:00:55;;;;;;;;;;;;;;;;;;5082742;28;19947;-76
2024/02/10 17:03:24;;;;;;;;;;;;;;;;;;5078701;28;20397;-76
2024/02/10 17:05:54;;;;;;;;;;;;;;;;;;5081161;28;19928;-76
2024/02/10 17:08:25;;;;;;;;;;;;;;;;;;5078077;28;19974;-77
2024/02/10 17:10:51;;;;;;;;;;;;;;;;;;5078961;28;19930;-77
2024/02/10 17:13:20;;;;;;;;;;;;;;;;;;5066548;28;20292;-76
2024/02/10 17:15:47;;;;;;;;;;;;;;;;;;5084089;28;19932;-76
2024/02/10 17:18:13;;;;;;;;;;;;;;;;;;5062321;28;20436;-76
2024/02/10 17:20:40;;;;;;;;;;;;;;;;;;5084801;28;20376;-77